Time;durP1;ratioP1;P1;durP2;ratioP2;P2;SDS_P1;SDS_P2;PMS_P1;PMS_P2;Temp;Humidity;BMP_temperature;BMP_pressure;BME280_temperature;BME280_humidity;BME280_pressure;Samples;Min_cycle;Max_cycle;Signal;HPM_P1;HPM_P2
2022/11/21 00:01:21;;;;;;;7.30;3.05;;;7.70;84.70;;;;;;5123062;27;20206;-70
2022/11/21 00:03:49;;;;;;;9.10;1.85;;;7.70;84.60;;;;;;5119931;27;20612;-71
2022/11/21 00:06:18;;;;;;;10.38;2.70;;;7.70;84.60;;;;;;5123551;28;20225;-70
2022/11/21 00:08:46;;;;;;;13.35;2.60;;;7.70;84.80;;;;;;5119948;27;20218;-70
2022/11/21 00:11:15;;;;;;;6.82;2.75;;;7.80;84.60;;;;;;5119032;27;20254;-71
2022/11/21 00:13:43;;;;;;;6.35;2.50;;;7.80;84.50;;;;;;5122233;28;20254;-71
2022/11/21 00:16:14;;;;;;;6.57;2.20;;;7.70;84.60;;;;;;5120878;27;20205;-71
2022/11/21 00:18:44;;;;;;;5.90;2.17;;;7.70;84.60;;;;;;5122811;27;20221;-70
2022/11/21 00:21:14;;;;;;;15.68;2.67;;;7.70;84.70;;;;;;5123049;28;20198;-71
2022/11/21 00:23:42;;;;;;;12.07;2.60;;;7.70;84.70;;;;;;5122591;28;20193;-71
2022/11/21 00:26:12;;;;;;;9.40;2.50;;;7.70;84.70;;;;;;5122222;28;20254;-70
2022/11/21 00:28:40;;;;;;;11.20;3.08;;;7.80;84.60;;;;;;5121458;27;20759;-70
2022/11/21 00:31:08;;;;;;;7.50;2.28;;;7.80;84.60;;;;;;5114296;27;20228;-70
2022/11/21 00:33:37;;;;;;;8.57;2.20;;;7.80;84.60;;;;;;5122211;28;20201;-71
2022/11/21 00:36:09;;;;;;;11.25;2.55;;;7.80;84.60;;;;;;5120708;28;20199;-70
2022/11/21 00:38:37;;;;;;;6.47;2.03;;;7.80;84.60;;;;;;5122515;27;20206;-71
2022/11/21 00:41:05;;;;;;;6.05;1.90;;;7.80;84.60;;;;;;5120273;27;20785;-70
2022/11/21 00:43:34;;;;;;;6.82;2.22;;;7.80;84.60;;;;;;5121974;28;20194;-70
2022/11/21 00:46:03;;;;;;;5.05;1.83;;;7.80;84.60;;;;;;5122785;28;20248;-71
2022/11/21 00:48:31;;;;;;;7.10;2.35;;;7.80;84.60;;;;;;5122689;27;20214;-71
2022/11/21 00:51:00;;;;;;;7.22;2.15;;;7.80;84.60;;;;;;5119220;28;20198;-70
2022/11/21 00:53:30;;;;;;;5.55;1.90;;;7.80;84.60;;;;;;5120973;28;20206;-70
2022/11/21 00:55:58;;;;;;;4.95;1.60;;;7.80;84.50;;;;;;5120221;28;20221;-71
2022/11/21 00:58:26;;;;;;;5.95;1.85;;;7.80;84.60;;;;;;5122614;27;20730;-71
2022/11/21 01:01:03;;;;;;;6.65;1.75;;;7.80;84.60;;;;;;5120046;28;20318;-71
2022/11/21 01:03:33;;;;;;;4.22;1.50;;;7.80;84.50;;;;;;5120704;28;20289;-71
2022/11/21 01:06:02;;;;;;;4.45;1.60;;;7.80;84.60;;;;;;5122416;28;20233;-71
2022/11/21 01:08:32;;;;;;;5.53;1.70;;;7.80;84.60;;;;;;5120561;27;20201;-71
2022/11/21 01:11:03;;;;;;;5.97;2.05;;;7.80;84.50;;;;;;5117423;27;20206;-71
2022/11/21 01:13:32;;;;;;;11.00;1.70;;;7.80;84.50;;;;;;5122449;28;20233;-70
2022/11/21 01:16:03;;;;;;;6.30;1.58;;;7.80;84.40;;;;;;5123256;28;20710;-70
2022/11/21 01:18:31;;;;;;;5.78;1.60;;;7.80;84.20;;;;;;5118386;27;20194;-70
2022/11/21 01:21:00;;;;;;;4.35;1.45;;;7.80;84.20;;;;;;5120614;27;20719;-71
2022/11/21 01:23:28;;;;;;;5.20;1.63;;;7.80;84.20;;;;;;5124162;27;20221;-70
2022/11/21 01:26:01;;;;;;;6.63;1.60;;;7.70;84.40;;;;;;5123958;27;20197;-71
2022/11/21 01:28:29;;;;;;;3.80;1.52;;;7.70;84.50;;;;;;5126118;27;20677;-70
2022/11/21 01:31:03;;;;;;;5.80;1.40;;;7.80;84.20;;;;;;5121456;27;20339;-71
2022/11/21 01:33:32;;;;;;;8.27;1.75;;;7.70;84.40;;;;;;5125819;27;20702;-71
2022/11/21 01:36:07;;;;;;;5.45;1.45;;;7.70;84.20;;;;;;5123219;27;20302;-71
2022/11/21 01:38:34;;;;;;;4.13;1.50;;;7.70;84.40;;;;;;5123531;27;20206;-71
2022/11/21 01:41:04;;;;;;;4.82;1.50;;;7.70;84.20;;;;;;5122438;27;20202;-71
2022/11/21 01:43:33;;;;;;;4.32;1.10;;;7.70;84.20;;;;;;5126965;27;20226;-70
2022/11/21 01:46:03;;;;;;;6.65;1.60;;;7.70;84.20;;;;;;5128564;27;20209;-71
2022/11/21 01:48:37;;;;;;;8.85;1.40;;;7.70;84.20;;;;;;5125768;27;20201;-71
2022/11/21 01:51:11;;;;;;;4.78;1.13;;;7.70;84.20;;;;;;5126392;27;20206;-70
2022/11/21 01:53:40;;;;;;;3.85;1.00;;;7.70;84.30;;;;;;5119695;27;20229;-69
2022/11/21 01:56:10;;;;;;;3.75;1.00;;;7.70;84.30;;;;;;5125122;27;20288;-70
2022/11/21 01:58:41;;;;;;;4.03;1.20;;;7.70;84.30;;;;;;5127832;27;20279;-71
2022/11/21 02:01:09;;;;;;;4.45;1.15;;;7.70;84.30;;;;;;5141521;27;20628;-70
2022/11/21 02:03:42;;;;;;;4.90;1.42;;;7.70;84.30;;;;;;5124186;27;20182;-70
2022/11/21 02:06:12;;;;;;;5.27;1.10;;;7.70;84.20;;;;;;5117652;27;20198;-70
2022/11/21 02:08:42;;;;;;;5.32;1.70;;;7.70;84.20;;;;;;5125203;27;22309;-70
2022/11/21 02:11:17;;;;;;;3.90;1.45;;;7.70;84.30;;;;;;5126649;27;20795;-70
2022/11/21 02:13:45;;;;;;;4.25;1.48;;;7.70;84.30;;;;;;5125159;27;20314;-71
2022/11/21 02:16:13;;;;;;;7.20;2.08;;;7.70;84.10;;;;;;5127953;27;20198;-71
2022/11/21 02:18:41;;;;;;;6.15;2.03;;;7.70;84.20;;;;;;5123994;27;20722;-70
2022/11/21 02:21:18;;;;;;;5.22;1.83;;;7.60;84.20;;;;;;5122836;27;20206;-70
2022/11/21 02:23:58;;;;;;;6.18;2.05;;;7.60;84.30;;;;;;5126169;27;20197;-69
2022/11/21 02:26:31;;;;;;;7.90;2.38;;;7.70;84.30;;;;;;5125016;27;20293;-69
2022/11/21 02:29:00;;;;;;;7.35;2.10;;;7.60;84.30;;;;;;5127101;27;20673;-70
2022/11/21 02:31:28;;;;;;;11.10;2.85;;;7.70;84.30;;;;;;5126171;27;20678;-69
2022/11/21 02:33:56;;;;;;;9.93;2.72;;;7.70;84.20;;;;;;5124695;27;20259;-69
2022/11/21 02:36:39;;;;;;;6.78;2.67;;;7.70;84.20;;;;;;5128343;27;20218;-70
2022/11/21 02:39:11;;;;;;;11.18;2.80;;;7.70;84.20;;;;;;5125703;27;20234;-69
2022/11/21 02:41:46;;;;;;;7.93;2.63;;;7.70;84.20;;;;;;5127036;27;20197;-70
2022/11/21 02:44:21;;;;;;;11.63;3.10;;;7.80;84.10;;;;;;5127598;27;20462;-70
2022/11/21 02:46:51;;;;;;;10.20;2.90;;;7.80;84.10;;;;;;5117712;27;20210;-69
2022/11/21 02:49:27;;;;;;;13.10;3.15;;;7.80;84.10;;;;;;5125931;27;20241;-70
2022/11/21 02:51:55;;;;;;;18.52;3.05;;;7.80;84.10;;;;;;5125388;27;20239;-70
2022/11/21 02:54:22;;;;;;;10.00;2.75;;;7.80;84.20;;;;;;5123116;27;20217;-70
2022/11/21 02:56:52;;;;;;;14.35;2.55;;;7.80;84.20;;;;;;5122946;27;20671;-70
2022/11/21 02:59:20;;;;;;;7.22;2.55;;;7.80;84.40;;;;;;5126550;27;20249;-70
2022/11/21 03:01:48;;;;;;;14.68;2.80;;;7.80;84.20;;;;;;5122913;27;20210;-70
2022/11/21 03:04:15;;;;;;;17.05;3.03;;;7.80;84.20;;;;;;5128026;27;20197;-70
2022/11/21 03:06:43;;;;;;;8.00;2.50;;;7.80;84.10;;;;;;5125304;27;20868;-70
2022/11/21 03:09:11;;;;;;;8.45;2.65;;;7.90;84.10;;;;;;5122884;27;20226;-70
2022/11/21 03:11:45;;;;;;;8.10;2.30;;;7.90;84.10;;;;;;5123748;27;20235;-70
2022/11/21 03:14:14;;;;;;;13.27;2.10;;;7.90;84.10;;;;;;5127496;27;20218;-70
2022/11/21 03:16:42;;;;;;;9.00;2.55;;;7.90;84.10;;;;;;5127025;27;20239;-70
2022/11/21 03:19:10;;;;;;;13.55;2.75;;;7.90;84.00;;;;;;5124099;27;20225;-70
2022/11/21 03:21:38;;;;;;;9.98;2.17;;;7.90;84.00;;;;;;5126575;27;20206;-70
2022/11/21 03:24:07;;;;;;;9.85;2.45;;;7.90;84.00;;;;;;5120737;27;20190;-70
2022/11/21 03:26:35;;;;;;;10.88;2.80;;;7.90;83.80;;;;;;5124266;27;20202;-70
2022/11/21 03:29:03;;;;;;;12.02;2.50;;;7.90;83.90;;;;;;5125953;27;20218;-70
2022/11/21 03:31:32;;;;;;;8.32;2.40;;;7.90;83.70;;;;;;5126310;27;20567;-72
2022/11/21 03:34:00;;;;;;;10.23;2.65;;;7.90;83.70;;;;;;5121648;27;20266;-71
2022/11/21 03:36:28;;;;;;;11.93;2.58;;;7.90;83.60;;;;;;5125369;27;20284;-72
2022/11/21 03:38:57;;;;;;;10.00;2.55;;;7.90;83.90;;;;;;5123709;27;20213;-69
2022/11/21 03:41:29;;;;;;;7.07;2.58;;;7.90;83.90;;;;;;5119494;27;20721;-68
2022/11/21 03:43:57;;;;;;;10.32;3.15;;;7.90;83.90;;;;;;5122389;27;20213;-70
2022/11/21 03:46:26;;;;;;;10.77;2.50;;;7.90;83.90;;;;;;5125792;27;20217;-70
2022/11/21 03:48:55;;;;;;;6.43;2.40;;;7.90;83.90;;;;;;5125520;27;20286;-69
2022/11/21 03:51:24;;;;;;;8.88;2.90;;;7.90;83.90;;;;;;5122759;27;20590;-70
2022/11/21 03:53:52;;;;;;;9.70;2.45;;;7.90;83.80;;;;;;5123741;27;20267;-69
2022/11/21 03:56:20;;;;;;;7.53;2.10;;;7.90;83.80;;;;;;5125267;27;20274;-69
2022/11/21 03:58:48;;;;;;;8.55;2.83;;;7.90;83.70;;;;;;5125162;27;20222;-71
2022/11/21 04:01:16;;;;;;;12.77;3.90;;;7.90;83.70;;;;;;5126794;27;20189;-70
2022/11/21 04:03:45;;;;;;;11.13;2.75;;;7.90;83.70;;;;;;5120792;27;20693;-70
2022/11/21 04:06:17;;;;;;;11.52;2.65;;;7.90;83.60;;;;;;5123084;28;20205;-70
2022/11/21 04:08:44;;;;;;;21.33;3.03;;;7.90;83.50;;;;;;5121793;27;20229;-70
2022/11/21 04:11:13;;;;;;;6.30;2.15;;;8.00;83.40;;;;;;5124401;28;20246;-70
2022/11/21 04:13:41;;;;;;;8.38;2.58;;;8.00;83.30;;;;;;5121529;27;20214;-70
2022/11/21 04:16:09;;;;;;;8.48;2.15;;;8.00;83.30;;;;;;5122415;28;20198;-71
2022/11/21 04:18:37;;;;;;;6.65;2.00;;;7.90;83.50;;;;;;5122480;28;20907;-70
2022/11/21 04:21:07;;;;;;;6.57;2.30;;;7.90;83.60;;;;;;5121127;27;20197;-69
2022/11/21 04:23:36;;;;;;;10.07;2.55;;;7.90;83.50;;;;;;5121984;28;20205;-69
2022/11/21 04:26:04;;;;;;;11.60;2.55;;;7.90;83.50;;;;;;5120648;28;20272;-70
2022/11/21 04:28:32;;;;;;;13.27;2.58;;;7.90;83.60;;;;;;5122217;28;20570;-69
2022/11/21 04:31:04;;;;;;;8.90;2.55;;;7.90;83.50;;;;;;5120778;28;20201;-71
2022/11/21 04:33:38;;;;;;;9.95;3.00;;;8.00;83.30;;;;;;5121310;28;20221;-68
2022/11/21 04:36:07;;;;;;;6.40;2.35;;;8.00;83.30;;;;;;5124186;27;20202;-70
2022/11/21 04:38:36;;;;;;;6.72;2.45;;;8.00;83.20;;;;;;5124127;27;20198;-71
2022/11/21 04:41:04;;;;;;;10.43;2.30;;;8.00;83.20;;;;;;5124474;28;20210;-70
2022/11/21 04:43:32;;;;;;;8.70;2.60;;;8.00;83.20;;;;;;5124405;28;20187;-69
2022/11/21 04:46:00;;;;;;;5.70;2.30;;;8.00;83.20;;;;;;5123692;28;20200;-70
2022/11/21 04:48:28;;;;;;;12.00;2.80;;;8.00;83.20;;;;;;5122141;28;20695;-70
2022/11/21 04:50:56;;;;;;;6.05;1.88;;;8.00;83.30;;;;;;5121269;27;20869;-70
2022/11/21 04:53:24;;;;;;;8.50;2.20;;;8.00;83.20;;;;;;5122897;27;20655;-70
2022/11/21 04:55:53;;;;;;;18.00;3.65;;;8.00;83.20;;;;;;5125330;27;20237;-70
2022/11/21 04:58:21;;;;;;;10.10;2.25;;;7.90;83.20;;;;;;5128565;27;20210;-70
2022/11/21 05:00:49;;;;;;;7.47;2.30;;;8.00;83.20;;;;;;5129989;27;20202;-70
2022/11/21 05:03:17;;;;;;;8.02;2.47;;;8.00;83.20;;;;;;5125378;27;20198;-70
2022/11/21 05:05:46;;;;;;;8.40;2.40;;;8.00;83.10;;;;;;5123458;27;20207;-70
2022/11/21 05:08:14;;;;;;;6.43;2.40;;;8.00;83.20;;;;;;5124689;27;20202;-70
2022/11/21 05:13:30;;;;;;;9.45;2.08;;;8.00;83.10;;;;;;5127866;27;20244;-70
2022/11/21 05:15:58;;;;;;;10.43;2.80;;;8.00;83.10;;;;;;5125573;27;20197;-70
2022/11/21 05:18:26;;;;;;;11.73;2.40;;;8.00;83.10;;;;;;5131344;27;20228;-70
2022/11/21 05:20:54;;;;;;;5.93;2.17;;;8.00;83.10;;;;;;5127648;27;20202;-70
2022/11/21 05:23:22;;;;;;;11.93;2.20;;;8.00;83.10;;;;;;5127794;27;20671;-70
2022/11/21 05:25:50;;;;;;;15.80;2.78;;;8.00;83.10;;;;;;5126551;27;20202;-70
2022/11/21 05:28:18;;;;;;;5.68;2.33;;;8.00;83.10;;;;;;5128383;27;20622;-70
2022/11/21 05:30:48;;;;;;;13.02;2.25;;;8.10;82.90;;;;;;5129341;27;20221;-70
2022/11/21 05:33:16;;;;;;;4.53;2.05;;;8.00;82.90;;;;;;5127712;27;20254;-70
2022/11/21 05:35:44;;;;;;;7.28;2.15;;;8.00;82.90;;;;;;5125349;27;20205;-70
2022/11/21 05:38:12;;;;;;;6.07;2.15;;;8.00;82.90;;;;;;5128014;27;20585;-70
2022/11/21 05:40:40;;;;;;;5.55;2.10;;;8.00;83.00;;;;;;5129011;27;20245;-70
2022/11/21 05:45:56;;;;;;;9.07;2.50;;;8.00;82.90;;;;;;5129392;27;20202;-70
2022/11/21 05:48:24;;;;;;;12.00;2.92;;;8.00;83.00;;;;;;5124118;27;20209;-70
2022/11/21 05:50:51;;;;;;;8.32;2.65;;;8.00;83.00;;;;;;5126036;27;20596;-70
2022/11/21 05:53:20;;;;;;;14.13;3.05;;;8.00;82.90;;;;;;5126683;27;20208;-70
2022/11/21 05:55:48;;;;;;;7.88;3.47;;;8.00;83.00;;;;;;5126541;27;20210;-70
2022/11/21 05:58:16;;;;;;;8.35;2.50;;;8.00;82.90;;;;;;5126530;27;20198;-70
2022/11/21 06:00:44;;;;;;;9.85;2.10;;;8.00;82.90;;;;;;5128722;27;20229;-70
2022/11/21 06:03:29;;;;;;;9.77;2.58;;;8.00;82.90;;;;;;5126657;27;20202;-70
2022/11/21 06:06:02;;;;;;;6.75;2.30;;;8.00;83.00;;;;;;5123817;27;20206;-70
2022/11/21 06:08:32;;;;;;;6.82;2.05;;;8.00;83.00;;;;;;5124347;27;20216;-70
2022/11/21 06:11:00;;;;;;;5.88;1.88;;;8.00;83.00;;;;;;5124627;27;20206;-70
2022/11/21 06:13:28;;;;;;;5.90;2.03;;;8.00;83.00;;;;;;5123562;27;20206;-70
2022/11/21 06:16:00;;;;;;;7.43;2.20;;;8.00;83.00;;;;;;5128330;27;20238;-70
2022/11/21 06:18:32;;;;;;;4.15;1.80;;;8.00;83.00;;;;;;5124575;27;20216;-70
2022/11/21 06:21:02;;;;;;;6.95;2.33;;;8.00;83.00;;;;;;5123248;27;20218;-70
2022/11/21 06:23:30;;;;;;;8.48;2.25;;;8.00;83.00;;;;;;5123105;27;20198;-70
2022/11/21 06:25:59;;;;;;;8.02;2.17;;;8.00;83.00;;;;;;5123403;27;20206;-70
2022/11/21 06:28:29;;;;;;;8.05;2.10;;;8.00;83.10;;;;;;5126426;27;20201;-70
2022/11/21 06:31:01;;;;;;;5.50;2.08;;;8.00;83.10;;;;;;5127484;27;20283;-70
2022/11/21 06:33:31;;;;;;;3.92;1.60;;;8.00;83.10;;;;;;5123408;27;20687;-70
2022/11/21 06:36:02;;;;;;;5.93;1.85;;;8.00;83.10;;;;;;5125633;27;20624;-70
2022/11/21 06:38:30;;;;;;;10.23;2.30;;;8.00;83.10;;;;;;5125416;27;20220;-70
2022/11/21 06:40:58;;;;;;;9.30;2.13;;;8.10;83.10;;;;;;5124647;27;20233;-70
2022/11/21 06:43:27;;;;;;;6.83;2.67;;;8.10;83.00;;;;;;5125926;27;20214;-70
2022/11/21 06:45:55;;;;;;;5.15;1.73;;;8.00;83.00;;;;;;5123172;27;21000;-70
2022/11/21 06:48:23;;;;;;;6.05;2.10;;;8.10;83.10;;;;;;5123163;27;20284;-70
2022/11/21 06:50:53;;;;;;;10.90;2.50;;;8.10;83.20;;;;;;5122844;27;20718;-70
2022/11/21 06:53:20;;;;;;;5.45;2.17;;;8.10;83.10;;;;;;5122783;27;20198;-70
2022/11/21 06:55:48;;;;;;;9.90;2.85;;;8.10;83.00;;;;;;5123065;27;20770;-70
2022/11/21 06:58:17;;;;;;;10.38;3.00;;;8.10;82.90;;;;;;5121288;27;20294;-70
2022/11/21 07:00:47;;;;;;;4.78;2.60;;;8.00;82.90;;;;;;5118995;27;20241;-70
2022/11/21 07:03:15;;;;;;;5.60;2.15;;;8.00;82.90;;;;;;5122088;27;20206;-71
2022/11/21 07:05:43;;;;;;;5.78;2.60;;;8.00;83.10;;;;;;5124192;27;20223;-69
2022/11/21 07:08:12;;;;;;;11.55;2.20;;;7.90;83.10;;;;;;5125911;27;20206;-70
2022/11/21 07:10:41;;;;;;;8.77;2.60;;;7.90;83.20;;;;;;5123342;27;20690;-69
2022/11/21 07:13:29;;;;;;;6.50;2.50;;;7.90;83.20;;;;;;5120568;27;20747;-69
2022/11/21 07:16:02;;;;;;;8.20;2.60;;;7.90;83.20;;;;;;5123246;27;20213;-69
2022/11/21 07:18:30;;;;;;;6.38;2.42;;;7.90;83.20;;;;;;5123842;27;20202;-69
2022/11/21 07:20:59;;;;;;;6.05;2.00;;;8.00;83.20;;;;;;5121090;27;20204;-69
2022/11/21 07:23:30;;;;;;;9.00;2.60;;;8.00;83.20;;;;;;5121988;27;20213;-69
2022/11/21 07:26:00;;;;;;;6.43;2.70;;;7.90;83.30;;;;;;5123657;27;20693;-70
2022/11/21 07:28:28;;;;;;;5.80;2.00;;;7.90;83.30;;;;;;5121724;27;20249;-69
2022/11/21 07:30:57;;;;;;;10.50;2.28;;;7.90;83.40;;;;;;5121924;27;20205;-70
2022/11/21 07:33:25;;;;;;;7.80;1.85;;;8.00;83.30;;;;;;5121133;27;20285;-70
2022/11/21 07:35:55;;;;;;;10.77;2.00;;;8.00;83.30;;;;;;5122150;27;20209;-70
2022/11/21 07:38:23;;;;;;;7.00;1.95;;;8.00;83.30;;;;;;5123813;27;20230;-70
2022/11/21 07:40:53;;;;;;;5.85;2.03;;;8.00;83.30;;;;;;5122039;27;20819;-69
2022/11/21 07:43:21;;;;;;;10.52;1.65;;;8.00;83.30;;;;;;5125577;27;20194;-69
2022/11/21 07:45:49;;;;;;;7.50;2.05;;;8.00;83.30;;;;;;5124026;27;20280;-69
2022/11/21 07:48:17;;;;;;;6.60;2.20;;;8.00;83.40;;;;;;5122723;27;20205;-69
2022/11/21 07:50:45;;;;;;;6.72;1.92;;;8.00;83.30;;;;;;5121050;27;20226;-69
2022/11/21 07:53:13;;;;;;;5.88;1.42;;;8.00;83.30;;;;;;5124012;27;20282;-71
2022/11/21 07:55:41;;;;;;;4.88;1.90;;;8.00;83.40;;;;;;5122615;27;20233;-68
2022/11/21 07:58:12;;;;;;;5.53;1.92;;;8.00;83.40;;;;;;5122225;27;20263;-69
2022/11/21 08:00:42;;;;;;;7.82;2.08;;;8.00;83.40;;;;;;5122772;27;20239;-69
2022/11/21 08:03:11;;;;;;;3.97;1.90;;;8.00;83.40;;;;;;5124954;27;20317;-70
2022/11/21 08:05:41;;;;;;;5.18;1.88;;;8.00;83.50;;;;;;5122940;27;20281;-70
2022/11/21 08:08:10;;;;;;;4.07;1.50;;;8.00;83.40;;;;;;5123829;27;20824;-69
2022/11/21 08:10:39;;;;;;;7.03;1.92;;;8.00;83.50;;;;;;5122637;27;20225;-70
2022/11/21 08:13:06;;;;;;;5.95;1.75;;;8.10;83.30;;;;;;5120798;28;20259;-70
2022/11/21 08:15:36;;;;;;;5.70;1.70;;;8.00;83.30;;;;;;5119235;28;20221;-70
2022/11/21 08:18:09;;;;;;;4.75;1.95;;;8.10;83.40;;;;;;5120806;28;20202;-70
2022/11/21 08:20:37;;;;;;;8.88;2.70;;;8.00;83.50;;;;;;5121444;27;20226;-70
2022/11/21 08:23:06;;;;;;;8.98;2.25;;;8.10;83.50;;;;;;5120942;27;20194;-70
2022/11/21 08:25:36;;;;;;;8.13;2.00;;;8.10;83.40;;;;;;5121719;27;20210;-70
2022/11/21 08:28:05;;;;;;;6.53;2.10;;;8.10;83.50;;;;;;5122278;27;20513;-69
2022/11/21 08:30:34;;;;;;;7.30;2.35;;;8.10;83.40;;;;;;5127786;27;21320;-70
2022/11/21 08:33:04;;;;;;;5.80;2.15;;;8.10;83.30;;;;;;5127118;27;20721;-71
2022/11/21 08:35:32;;;;;;;6.05;1.77;;;8.10;83.40;;;;;;5125801;27;20210;-70
2022/11/21 08:38:01;;;;;;;5.55;1.75;;;8.10;83.20;;;;;;5127577;27;20197;-70
2022/11/21 08:40:32;;;;;;;5.18;2.13;;;8.10;83.20;;;;;;5126108;27;20275;-70
2022/11/21 08:43:01;;;;;;;4.60;1.90;;;8.10;83.30;;;;;;5123677;27;20194;-70
2022/11/21 08:45:29;;;;;;;6.30;2.00;;;8.10;83.30;;;;;;5123574;27;20213;-69
2022/11/21 08:47:57;;;;;;;6.85;2.13;;;8.10;83.30;;;;;;5127039;27;20490;-69
2022/11/21 08:50:27;;;;;;;10.05;2.65;;;8.10;83.30;;;;;;5128203;27;20744;-69
2022/11/21 08:53:00;;;;;;;7.10;2.50;;;8.20;83.40;;;;;;5125307;27;20626;-69
2022/11/21 08:55:27;;;;;;;9.00;2.30;;;8.20;83.30;;;;;;5124796;27;20226;-69
2022/11/21 08:57:56;;;;;;;6.65;2.13;;;8.20;83.30;;;;;;5124469;27;20883;-69
2022/11/21 09:00:24;;;;;;;11.20;2.65;;;8.20;83.30;;;;;;5127282;27;20217;-69
2022/11/21 09:02:52;;;;;;;7.80;2.50;;;8.20;83.40;;;;;;5128217;27;20250;-70
2022/11/21 09:05:20;;;;;;;5.63;2.40;;;8.30;83.30;;;;;;5129532;27;20270;-69
2022/11/21 09:07:56;;;;;;;5.75;2.28;;;8.20;83.30;;;;;;5126779;27;20254;-69
2022/11/21 09:10:24;;;;;;;6.93;2.80;;;8.30;83.30;;;;;;5127530;27;20221;-69
2022/11/21 09:12:52;;;;;;;5.50;2.75;;;8.30;83.30;;;;;;5127217;27;20198;-69
2022/11/21 09:18:06;;;;;;;5.70;2.20;;;8.30;83.20;;;;;;5128865;27;20201;-69
2022/11/21 09:20:43;;;;;;;5.47;2.80;;;8.30;83.20;;;;;;5129623;27;20481;-69
2022/11/21 09:23:15;;;;;;;5.00;1.80;;;8.30;83.30;;;;;;5127872;27;20206;-69
2022/11/21 09:25:44;;;;;;;15.23;2.70;;;8.40;83.20;;;;;;5128839;27;20444;-69
2022/11/21 09:28:13;;;;;;;4.55;2.38;;;8.40;83.20;;;;;;5128605;27;20455;-69
2022/11/21 09:30:42;;;;;;;7.65;2.35;;;8.40;83.30;;;;;;5124589;27;20225;-69
2022/11/21 09:33:13;;;;;;;4.90;2.17;;;8.40;83.20;;;;;;5127262;27;20687;-68
2022/11/21 09:35:41;;;;;;;6.53;3.17;;;8.40;83.20;;;;;;5123272;27;20229;-69
2022/11/21 09:38:09;;;;;;;8.23;2.53;;;8.40;83.20;;;;;;5124634;27;20912;-68
2022/11/21 09:40:44;;;;;;;7.25;2.40;;;8.40;83.20;;;;;;5122235;27;20475;-68
2022/11/21 09:43:30;;;;;;;5.37;2.13;;;8.40;83.10;;;;;;5124644;27;20201;-68
2022/11/21 09:46:04;;;;;;;7.10;2.40;;;8.40;83.10;;;;;;5122776;27;20451;-68
2022/11/21 09:48:39;;;;;;;10.13;2.50;;;8.50;83.10;;;;;;5121944;27;20463;-68
2022/11/21 09:51:11;;;;;;;9.52;2.70;;;8.40;83.00;;;;;;5124329;27;20477;-68
2022/11/21 09:53:50;;;;;;;5.07;2.40;;;8.40;83.10;;;;;;5122541;27;20251;-68
2022/11/21 09:56:23;;;;;;;6.00;2.27;;;8.40;83.10;;;;;;5127585;27;20233;-68
2022/11/21 09:59:11;;;;;;;4.28;1.90;;;8.40;83.10;;;;;;5124167;27;20487;-68
2022/11/21 10:01:39;;;;;;;9.50;2.40;;;8.40;83.00;;;;;;5125550;27;20194;-68
2022/11/21 10:04:07;;;;;;;6.60;2.53;;;8.40;83.00;;;;;;5126454;27;20639;-68
2022/11/21 10:06:44;;;;;;;7.05;2.30;;;8.50;82.90;;;;;;5125314;27;20610;-68
2022/11/21 10:09:23;;;;;;;7.28;2.47;;;8.50;82.80;;;;;;5123969;27;21171;-68
2022/11/21 10:14:58;;;;;;;7.90;2.40;;;8.40;82.90;;;;;;5123646;27;20206;-69
2022/11/21 10:17:33;;;;;;;10.60;2.30;;;8.40;82.90;;;;;;5124492;27;20237;-68
2022/11/21 10:20:27;;;;;;;6.95;2.38;;;8.40;82.90;;;;;;5099265;27;20272;-68
2022/11/21 10:23:21;;;;;;;9.97;2.23;;;8.40;82.90;;;;;;5117997;27;20873;-67
2022/11/21 10:25:56;;;;;;;5.55;1.83;;;8.40;83.00;;;;;;5120404;27;20466;-69
2022/11/21 10:28:34;;;;;;;5.55;2.20;;;8.40;82.80;;;;;;5123738;27;20204;-71
2022/11/21 10:31:04;;;;;;;5.85;2.20;;;8.40;82.90;;;;;;5111659;27;20214;-68
2022/11/21 10:33:35;;;;;;;4.63;2.40;;;8.40;82.80;;;;;;5125212;27;20606;-68
2022/11/21 10:36:12;;;;;;;8.38;3.20;;;8.30;83.00;;;;;;5125555;27;20217;-68
2022/11/21 10:38:43;;;;;;;6.57;3.07;;;8.30;83.00;;;;;;5127486;27;20727;-68
2022/11/21 10:41:17;;;;;;;5.50;2.70;;;8.30;83.20;;;;;;5115222;27;20459;-68
2022/11/21 10:46:40;;;;;;;5.88;2.47;;;8.50;83.30;;;;;;5123605;27;20201;-68
2022/11/21 10:49:13;;;;;;;9.73;2.37;;;8.50;83.20;;;;;;5113642;27;20225;-68
2022/11/21 10:51:47;;;;;;;7.18;2.90;;;8.50;83.20;;;;;;5119889;27;20440;-68
2022/11/21 10:54:33;;;;;;;7.63;2.57;;;8.60;83.20;;;;;;5121350;27;20236;-68
2022/11/21 10:57:10;;;;;;;4.93;2.00;;;8.60;83.10;;;;;;5121104;27;20476;-68
2022/11/21 10:59:40;;;;;;;10.43;2.55;;;8.50;83.00;;;;;;5122896;27;20250;-69
2022/11/21 11:02:24;;;;;;;4.70;2.00;;;8.50;83.00;;;;;;5123186;27;20617;-69
2022/11/21 11:05:18;;;;;;;5.15;2.47;;;8.50;83.00;;;;;;5120610;27;20206;-69
2022/11/21 11:08:01;;;;;;;5.13;2.35;;;8.50;83.00;;;;;;5122648;27;20884;-67
2022/11/21 11:10:30;;;;;;;6.65;2.10;;;8.60;83.00;;;;;;5114960;27;20230;-67
2022/11/21 11:16:15;;;;;;;6.57;2.13;;;8.60;83.10;;;;;;5124289;27;20744;-68
2022/11/21 11:18:50;;;;;;;6.03;2.00;;;8.60;83.10;;;;;;5124363;27;20512;-69
2022/11/21 11:21:20;;;;;;;7.80;2.25;;;8.70;83.20;;;;;;5113705;27;20523;-68
2022/11/21 11:23:49;;;;;;;7.20;2.03;;;8.70;82.90;;;;;;5125966;27;20251;-69
2022/11/21 11:26:27;;;;;;;8.55;1.23;;;8.80;82.90;;;;;;5124569;27;20214;-68
2022/11/21 11:29:08;;;;;;;8.97;2.07;;;8.80;82.60;;;;;;5124664;27;20240;-68
2022/11/21 11:31:42;;;;;;;5.75;1.60;;;8.80;82.50;;;;;;5111599;27;20475;-68
2022/11/21 11:34:13;;;;;;;7.23;1.87;;;8.80;82.60;;;;;;5123527;27;20616;-68
2022/11/21 11:36:55;;;;;;;6.60;1.37;;;8.80;82.40;;;;;;5125906;27;20504;-67
2022/11/21 11:39:38;;;;;;;5.13;1.60;;;8.80;82.40;;;;;;5121444;27;20902;-68
2022/11/21 11:48:22;;;;;;;5.03;1.57;;;8.90;82.30;;;;;;5050688;28;20478;-69
2022/11/21 11:50:53;;;;;;;8.10;1.83;;;9.00;82.30;;;;;;5118547;27;21334;-70
2022/11/21 11:53:26;;;;;;;3.57;1.40;;;9.00;82.10;;;;;;5124371;27;20451;-67
2022/11/21 11:55:57;;;;;;;3.63;1.80;;;9.00;82.10;;;;;;5123195;27;20475;-67
2022/11/21 11:58:33;;;;;;;3.33;1.10;;;9.10;82.00;;;;;;5122049;27;20894;-68
2022/11/21 12:01:06;;;;;;;3.97;1.40;;;9.10;81.90;;;;;;5109342;27;20540;-68
2022/11/21 12:03:41;;;;;;;6.10;1.10;;;9.10;81.60;;;;;;5122922;27;21604;-68
2022/11/21 12:06:16;;;;;;;3.87;1.20;;;9.10;81.60;;;;;;5122886;27;20460;-68
2022/11/21 12:08:52;;;;;;;4.43;1.50;;;9.10;81.20;;;;;;5122259;27;20465;-67
2022/11/21 12:17:19;;;;;;;6.37;1.40;;;9.00;81.00;;;;;;5123440;28;20543;-67
2022/11/21 12:19:52;;;;;;;8.93;1.33;;;9.00;81.00;;;;;;5119321;27;20494;-69
2022/11/21 12:22:20;;;;;;;4.57;1.80;;;9.00;81.00;;;;;;5118211;28;20455;-69
2022/11/21 12:24:48;;;;;;;12.33;1.40;;;9.00;80.90;;;;;;5121719;28;20551;-67
2022/11/21 12:27:27;;;;;;;4.90;1.80;;;9.10;80.80;;;;;;5124165;28;20455;-67
2022/11/21 12:30:40;;;;;;;4.77;1.80;;;9.10;80.80;;;;;;5117554;27;20530;-67
2022/11/21 12:33:17;;;;;;;6.93;1.90;;;9.20;80.80;;;;;;5123306;28;20451;-67
2022/11/21 12:36:19;;;;;;;8.47;1.70;;;9.20;80.70;;;;;;5123236;27;20200;-69
2022/11/21 12:39:13;;;;;;;6.70;1.57;;;9.30;80.60;;;;;;5125989;28;20478;-67
2022/11/21 12:44:54;;;;;;;8.17;1.63;;;9.30;80.20;;;;;;5122487;28;20912;-67
2022/11/21 12:56:27;;;;;;;8.02;2.10;;;9.20;79.90;;;;;;5123804;28;20482;-68
2022/11/21 12:58:57;;;;;;;6.30;1.77;;;9.20;79.90;;;;;;5122630;27;20831;-68
2022/11/21 13:01:35;;;;;;;6.63;1.57;;;9.20;79.80;;;;;;5116781;28;20466;-68
2022/11/21 13:04:05;;;;;;;6.10;1.50;;;9.20;79.80;;;;;;5124788;27;20477;-68
2022/11/21 13:06:38;;;;;;;7.00;1.60;;;9.20;79.70;;;;;;5123834;28;20459;-68
2022/11/21 13:09:13;;;;;;;4.90;1.30;;;9.20;79.60;;;;;;5115135;27;20468;-68
2022/11/21 13:11:59;;;;;;;4.78;1.50;;;9.20;79.50;;;;;;5115901;28;20459;-67
2022/11/21 13:14:38;;;;;;;5.63;1.30;;;9.20;79.50;;;;;;5123807;27;20221;-68
2022/11/21 13:17:26;;;;;;;3.53;1.43;;;9.20;79.40;;;;;;5126979;27;20458;-68
2022/11/21 13:19:58;;;;;;;4.53;1.23;;;9.20;79.30;;;;;;5121340;27;20487;-66
2022/11/21 13:22:52;;;;;;;4.78;1.38;;;9.20;79.30;;;;;;5127224;27;20459;-68
2022/11/21 13:25:46;;;;;;;5.43;1.40;;;9.20;79.20;;;;;;5127957;27;20205;-69
2022/11/21 13:28:31;;;;;;;5.70;1.40;;;9.20;79.10;;;;;;5121097;27;20456;-69
2022/11/21 13:31:01;;;;;;;7.60;1.73;;;9.20;79.10;;;;;;5114154;27;20463;-69
2022/11/21 13:33:47;;;;;;;4.73;1.13;;;9.20;79.00;;;;;;5128598;27;20451;-69
2022/11/21 13:36:35;;;;;;;8.40;2.23;;;9.20;79.00;;;;;;5126620;27;20497;-69
2022/11/21 13:39:37;;;;;;;6.67;1.30;;;9.20;79.00;;;;;;5124653;27;20488;-67
2022/11/21 13:44:57;;;;;;;4.20;1.60;;;9.20;79.00;;;;;;5125805;27;20463;-67
2022/11/21 13:48:11;;;;;;;5.60;1.30;;;9.30;78.80;;;;;;5125059;27;20955;-68
2022/11/21 13:51:05;;;;;;;4.70;1.27;;;9.30;78.30;;;;;;5116853;27;20492;-68
2022/11/21 13:54:10;;;;;;;4.10;1.30;;;9.30;78.50;;;;;;5125787;27;20485;-69
2022/11/21 13:56:45;;;;;;;7.50;1.43;;;9.30;78.30;;;;;;5084592;27;21462;-69
2022/11/21 13:59:39;;;;;;;7.73;1.57;;;9.30;78.40;;;;;;5127965;27;20491;-68
2022/11/21 14:02:26;;;;;;;5.57;1.20;;;9.30;78.30;;;;;;5126186;27;20471;-68
2022/11/21 14:05:18;;;;;;;6.30;1.87;;;9.30;78.20;;;;;;5121623;27;21034;-67